Condicions actuals
Pluja



Pressió:
1013.92 (hPa) - 29.94 (inHG)
Visibilitat:

10.0 (km) - 6.2 (miles)
Base de Núvols

366 (Mts) - 1200 (Feets)
   Temperatura
24  °C
Temperatura
18  °C
P.ros.
69  %
 Humitat
   Velocitat del Vent
39  km/h
21  kts
24  mph
10.7  m/s
   Vent Direcció
N
45°
E
90°
135°
S
180°
225°
O
270°
315°
 70°

Est N
Est
   Airport Data
LEBL
Barcelona International Airport
Metar :LEBL 041700Z 07021KT 9999 -RA FEW012 BKN019 24/18 Q1014 NOSIG
Wed 4th August 19:00 pm
   Raw Metar Info
Raw METAR is the most common format in the world for the transmission of observational weather data. It is highly standardized through the International Civil Aviation Organization (ICAO), which allows it to be understood throughout most of the world.
   API Info
Data Provided by
https://www.checkwx.com/weather/LEBL

Aviation Weather providing METAR, TAF, AIRMET, SIGMET and OUTLOOK Weather Reports
   © Info
CSS/SVG/PHP scripts were developed by weather34.com for use in the weather34 template © 2015-2021

Guide Info provided by Metar-Wikipedia